createdAt,value
2018-05-29T00:00:07.330Z,51.73
2018-05-29T00:02:35.674Z,51.85
2018-05-29T00:05:04.109Z,51.50
2018-05-29T00:07:32.444Z,52.07
2018-05-29T00:10:00.965Z,51.81
2018-05-29T00:12:29.619Z,51.71
2018-05-29T00:14:57.747Z,51.63
2018-05-29T00:17:26.176Z,52.09
2018-05-29T00:19:54.699Z,51.32
2018-05-29T00:22:23.357Z,51.33
2018-05-29T00:24:51.822Z,52.23
2018-05-29T00:27:20.322Z,52.32
2018-05-29T00:29:48.785Z,52.89
2018-05-29T00:32:17.364Z,52.42
2018-05-29T00:34:46.091Z,52.36
2018-05-29T00:37:14.777Z,53.90
2018-05-29T00:39:43.447Z,52.87
2018-05-29T00:42:12.110Z,52.59
2018-05-29T00:44:40.690Z,52.83
2018-05-29T00:47:09.191Z,52.60
2018-05-29T00:49:37.753Z,52.25
2018-05-29T00:52:05.946Z,52.53
2018-05-29T00:54:34.413Z,52.99
2018-05-29T00:57:02.807Z,53.67
2018-05-29T00:59:31.474Z,52.70
2018-05-29T01:02:00.123Z,53.19
2018-05-29T01:04:28.435Z,53.96
2018-05-29T01:06:57.114Z,54.14
2018-05-29T01:09:25.602Z,54.09
2018-05-29T01:11:54.203Z,55.37
2018-05-29T01:14:22.759Z,54.61
2018-05-29T01:16:51.262Z,54.06
2018-05-29T01:19:19.429Z,54.44
2018-05-29T01:21:47.997Z,56.31
2018-05-29T01:24:16.650Z,55.37
2018-05-29T01:26:45.161Z,55.08
2018-05-29T01:29:13.583Z,55.84
2018-05-29T01:31:42.228Z,55.19
2018-05-29T01:34:10.511Z,54.78
2018-05-29T01:36:39.210Z,54.62
2018-05-29T01:39:07.875Z,55.71
2018-05-29T01:41:36.220Z,54.48
2018-05-29T01:44:04.956Z,54.51
2018-05-29T01:46:33.699Z,54.99
2018-05-29T01:49:02.412Z,55.27
2018-05-29T01:51:31.063Z,55.06
2018-05-29T01:53:59.712Z,54.51
2018-05-29T01:56:28.261Z,54.27
2018-05-29T01:58:56.947Z,53.76
2018-05-29T02:01:25.432Z,54.52
2018-05-29T02:03:53.654Z,55.74
2018-05-29T02:06:22.167Z,54.53
2018-05-29T02:08:50.762Z,54.23
2018-05-29T02:11:19.302Z,53.91
2018-05-29T02:13:47.956Z,55.13
2018-05-29T02:16:16.405Z,55.09
2018-05-29T02:18:45.152Z,54.61
2018-05-29T02:21:31.116Z,53.27
2018-05-29T02:24:17.433Z,53.70
2018-05-29T02:26:46.018Z,53.00
2018-05-29T02:29:14.666Z,52.48
2018-05-29T02:31:43.427Z,52.61
2018-05-29T02:34:11.710Z,53.85
2018-05-29T02:36:40.107Z,56.73
2018-05-29T02:39:08.795Z,55.90
2018-05-29T02:41:37.223Z,56.53
2018-05-29T02:44:05.664Z,56.55
2018-05-29T02:46:34.339Z,58.40
2018-05-29T02:49:03.206Z,59.03
2018-05-29T02:51:31.908Z,57.14
2018-05-29T02:54:00.222Z,55.70
2018-05-29T02:56:28.755Z,56.23
2018-05-29T02:58:57.442Z,55.58
2018-05-29T03:01:25.740Z,61.65
2018-05-29T03:03:53.777Z,60.48
2018-05-29T03:06:21.774Z,61.27
2018-05-29T03:08:49.795Z,59.58
2018-05-29T03:11:17.875Z,58.39
2018-05-29T03:13:45.870Z,58.37
2018-05-29T03:16:13.913Z,59.72
2018-05-29T03:18:41.948Z,57.91
2018-05-29T03:21:09.970Z,59.03
2018-05-29T03:23:38.031Z,59.02
2018-05-29T03:26:06.042Z,59.59
2018-05-29T03:28:34.015Z,57.86
2018-05-29T03:31:02.067Z,56.47
2018-05-29T03:33:30.034Z,58.71
2018-05-29T03:35:58.055Z,57.77
2018-05-29T03:38:26.064Z,57.61
2018-05-29T03:40:54.054Z,57.09
2018-05-29T03:43:22.059Z,56.02
2018-05-29T03:45:50.067Z,58.44
2018-05-29T03:48:18.365Z,57.01
2018-05-29T03:50:46.295Z,56.53
2018-05-29T03:53:14.268Z,57.11
2018-05-29T03:55:42.284Z,56.68
2018-05-29T03:58:10.383Z,56.11
2018-05-29T04:00:38.827Z,57.02
2018-05-29T04:03:06.815Z,57.07
2018-05-29T04:05:34.820Z,56.70
2018-05-29T04:08:02.870Z,55.03
2018-05-29T04:10:32.226Z,57.22
2018-05-29T04:13:00.239Z,56.48
2018-05-29T04:15:28.254Z,56.68
2018-05-29T04:17:56.326Z,56.60
2018-05-29T04:20:24.366Z,56.81
2018-05-29T04:22:52.396Z,56.53
2018-05-29T04:25:20.392Z,55.95
2018-05-29T04:27:48.302Z,54.21
2018-05-29T04:30:16.316Z,50.07
2018-05-29T04:32:44.337Z,54.50
2018-05-29T04:35:12.369Z,54.24
2018-05-29T04:37:40.424Z,51.58
2018-05-29T04:40:08.407Z,53.86
2018-05-29T04:42:36.397Z,51.38
2018-05-29T04:45:04.474Z,54.48
2018-05-29T04:47:32.496Z,52.83
2018-05-29T04:50:00.861Z,51.24
2018-05-29T04:52:28.830Z,53.07
2018-05-29T04:54:56.850Z,52.09
2018-05-29T04:57:24.890Z,50.61
2018-05-29T04:59:52.936Z,51.75
2018-05-29T05:02:20.996Z,50.67
2018-05-29T05:04:49.218Z,49.48
2018-05-29T05:07:17.209Z,49.18
2018-05-29T05:09:45.229Z,49.88
2018-05-29T05:12:13.254Z,48.71
2018-05-29T05:14:41.278Z,47.02
2018-05-29T05:17:09.333Z,46.47
2018-05-29T05:19:37.298Z,46.42
2018-05-29T05:22:05.305Z,47.13
2018-05-29T05:24:33.258Z,46.06
2018-05-29T05:27:01.856Z,48.00
2018-05-29T05:29:30.487Z,47.41
2018-05-29T05:31:58.848Z,46.48
2018-05-29T05:34:27.067Z,44.86
2018-05-29T05:36:55.108Z,46.99
2018-05-29T05:39:23.111Z,45.45
2018-05-29T05:41:51.053Z,45.03
2018-05-29T05:44:19.069Z,44.63
2018-05-29T05:46:47.027Z,42.63
2018-05-29T05:49:15.127Z,44.51
2018-05-29T05:51:43.434Z,43.61
2018-05-29T05:54:11.591Z,43.21
2018-05-29T05:56:39.700Z,41.17
2018-05-29T05:59:07.695Z,36.10
2018-05-29T06:01:35.734Z,36.65
2018-05-29T06:04:03.765Z,38.93
2018-05-29T06:06:31.716Z,35.61
2018-05-29T06:08:59.699Z,36.45
2018-05-29T06:11:27.718Z,36.01
2018-05-29T06:13:55.741Z,33.12
2018-05-29T06:16:23.835Z,34.96
2018-05-29T06:18:51.851Z,33.03
2018-05-29T06:21:19.735Z,34.06
2018-05-29T06:23:47.779Z,32.17
2018-05-29T06:26:15.834Z,33.50
2018-05-29T06:28:43.875Z,32.24
2018-05-29T06:31:11.912Z,33.67
2018-05-29T06:33:39.883Z,32.08
2018-05-29T06:36:07.929Z,31.18
2018-05-29T06:38:36.089Z,31.69
2018-05-29T06:41:04.194Z,31.28
2018-05-29T06:43:32.267Z,30.52
2018-05-29T06:46:00.324Z,31.12
2018-05-29T06:48:28.401Z,34.14
2018-05-29T06:50:56.416Z,30.31
2018-05-29T06:53:24.686Z,29.61
2018-05-29T06:55:53.269Z,27.37
2018-05-29T06:58:21.255Z,28.88
2018-05-29T07:00:49.235Z,30.36
2018-05-29T07:03:17.288Z,28.68
2018-05-29T07:05:45.305Z,25.95
2018-05-29T07:08:13.314Z,27.47
2018-05-29T07:10:41.413Z,27.80
2018-05-29T07:13:09.444Z,27.51
2018-05-29T07:15:37.488Z,27.15
2018-05-29T07:18:05.512Z,25.98
2018-05-29T07:20:33.570Z,25.77
2018-05-29T07:23:01.682Z,26.42
2018-05-29T07:25:29.861Z,24.33
2018-05-29T07:27:57.962Z,26.86
2018-05-29T07:30:25.971Z,22.67
2018-05-29T07:32:53.964Z,24.58
2018-05-29T07:35:21.922Z,24.72
2018-05-29T07:37:49.962Z,22.85
2018-05-29T07:40:18.017Z,24.67
2018-05-29T07:42:46.057Z,23.91
2018-05-29T07:45:14.113Z,24.93
2018-05-29T07:47:42.192Z,23.61
2018-05-29T07:50:10.202Z,22.46
2018-05-29T07:52:38.186Z,23.66
2018-05-29T07:55:06.647Z,21.77
2018-05-29T07:57:34.698Z,22.35
2018-05-29T08:00:02.694Z,23.12
2018-05-29T08:02:30.644Z,22.69
2018-05-29T08:04:58.777Z,24.11
2018-05-29T08:07:26.892Z,21.88
2018-05-29T08:09:55.441Z,22.73
2018-05-29T08:12:23.961Z,20.31
2018-05-29T08:14:52.454Z,19.33
2018-05-29T08:17:21.140Z,19.98
2018-05-29T08:19:49.708Z,21.27
2018-05-29T08:22:18.286Z,21.18
2018-05-29T08:24:46.765Z,19.01
2018-05-29T08:27:15.327Z,20.36
2018-05-29T08:29:43.830Z,19.72
2018-05-29T08:32:12.333Z,20.07
2018-05-29T08:34:41.056Z,21.10
2018-05-29T08:37:09.485Z,20.52
2018-05-29T08:39:38.085Z,20.32
2018-05-29T08:42:06.598Z,19.05
2018-05-29T08:44:35.030Z,18.98
2018-05-29T08:47:03.239Z,19.01
2018-05-29T08:49:31.571Z,19.06
2018-05-29T08:52:00.144Z,19.88
2018-05-29T08:54:28.637Z,19.35
2018-05-29T08:56:57.340Z,21.37
2018-05-29T08:59:26.103Z,20.53
2018-05-29T09:01:54.756Z,19.42
2018-05-29T09:04:23.234Z,19.39
2018-05-29T09:06:51.443Z,19.57
2018-05-29T09:09:20.070Z,20.01
2018-05-29T09:11:48.534Z,19.12
2018-05-29T09:14:17.393Z,18.97
2018-05-29T09:16:45.968Z,18.42
2018-05-29T09:19:14.691Z,19.87
2018-05-29T09:21:43.010Z,19.37
2018-05-29T09:24:11.103Z,19.67
2018-05-29T09:26:39.161Z,20.78
2018-05-29T09:29:07.215Z,20.11
2018-05-29T09:31:35.329Z,18.53
2018-05-29T09:34:03.338Z,18.64
2018-05-29T09:36:31.343Z,18.78
2018-05-29T09:38:59.302Z,18.41
2018-05-29T09:41:27.461Z,18.53
2018-05-29T09:43:55.540Z,18.25
2018-05-29T09:46:23.604Z,17.56
2018-05-29T09:48:51.575Z,17.89
2018-05-29T09:51:19.586Z,18.54
2018-05-29T09:53:47.643Z,17.91
2018-05-29T09:56:15.723Z,18.20
2018-05-29T09:58:43.997Z,18.00
2018-05-29T10:01:12.109Z,17.33
2018-05-29T10:03:40.152Z,17.79
2018-05-29T10:06:08.201Z,16.13
2018-05-29T10:08:36.221Z,16.92
2018-05-29T10:11:04.271Z,15.57
2018-05-29T10:13:32.301Z,17.87
2018-05-29T10:16:00.359Z,15.81
2018-05-29T10:18:28.530Z,17.57
2018-05-29T10:20:56.495Z,16.41
2018-05-29T10:23:24.584Z,17.59
2018-05-29T10:25:52.607Z,16.65
2018-05-29T10:28:20.701Z,16.32
2018-05-29T10:30:48.927Z,17.30
2018-05-29T10:33:17.000Z,17.43
2018-05-29T10:35:45.072Z,16.92
2018-05-29T10:38:13.093Z,19.47
2018-05-29T10:40:41.142Z,19.64
2018-05-29T10:43:09.171Z,18.11
2018-05-29T10:45:37.210Z,17.28
2018-05-29T10:48:05.267Z,18.01
2018-05-29T10:50:33.285Z,19.10
2018-05-29T10:53:01.333Z,18.43
2018-05-29T10:55:29.392Z,18.29
2018-05-29T10:57:57.543Z,16.95
2018-05-29T11:00:25.587Z,15.85
2018-05-29T11:02:53.635Z,16.51
2018-05-29T11:05:21.677Z,16.46
2018-05-29T11:07:49.791Z,16.61
2018-05-29T11:10:17.932Z,17.65
2018-05-29T11:12:45.995Z,15.65
2018-05-29T11:15:14.024Z,15.27
2018-05-29T11:17:42.056Z,15.47
2018-05-29T11:20:10.114Z,16.78
2018-05-29T11:22:38.220Z,16.39
2018-05-29T11:25:06.290Z,17.01
2018-05-29T11:27:34.325Z,17.69
2018-05-29T11:30:02.343Z,17.74
2018-05-29T11:32:30.358Z,15.98
2018-05-29T11:34:58.387Z,16.31
2018-05-29T11:37:26.441Z,17.17
2018-05-29T11:39:54.655Z,17.26
2018-05-29T11:42:22.672Z,16.48
2018-05-29T11:44:50.743Z,18.47
2018-05-29T11:47:18.716Z,16.46
2018-05-29T11:49:46.799Z,15.70
2018-05-29T11:52:14.826Z,16.98
2018-05-29T11:54:42.863Z,17.30
2018-05-29T11:57:10.951Z,17.83
2018-05-29T11:59:39.080Z,18.18
2018-05-29T12:02:07.806Z,17.61
2018-05-29T12:04:36.136Z,17.12
2018-05-29T12:07:04.714Z,17.67
2018-05-29T12:09:33.487Z,17.05
2018-05-29T12:12:13.705Z,17.52
2018-05-29T12:14:42.119Z,18.04
2018-05-29T12:17:10.509Z,16.44
2018-05-29T12:19:39.173Z,17.18
2018-05-29T12:22:08.380Z,17.06
2018-05-29T12:24:37.365Z,16.97
2018-05-29T12:27:05.954Z,16.98
2018-05-29T12:29:34.354Z,18.05
2018-05-29T12:32:02.400Z,16.84
2018-05-29T12:34:30.981Z,17.41
2018-05-29T12:36:59.563Z,17.03
2018-05-29T12:39:28.078Z,17.75
2018-05-29T12:41:56.629Z,17.00
2018-05-29T12:44:25.271Z,17.17
2018-05-29T12:46:53.807Z,17.25
2018-05-29T12:49:22.346Z,17.72
2018-05-29T12:51:50.668Z,16.20
2018-05-29T12:54:19.199Z,17.02
2018-05-29T12:56:47.843Z,18.46
2018-05-29T12:59:16.502Z,19.97
2018-05-29T13:01:44.832Z,17.95
2018-05-29T13:04:13.702Z,17.90
2018-05-29T13:06:42.255Z,17.80
2018-05-29T13:09:10.836Z,17.53
2018-05-29T13:11:39.839Z,18.48
2018-05-29T13:14:09.141Z,16.84
2018-05-29T13:16:37.651Z,18.80
2018-05-29T13:19:06.187Z,20.23
2018-05-29T13:21:35.230Z,20.59
2018-05-29T13:24:03.884Z,20.61
2018-05-29T13:26:32.147Z,20.61
2018-05-29T13:29:00.557Z,20.13
2018-05-29T13:31:28.996Z,21.62
2018-05-29T13:33:57.394Z,22.41
2018-05-29T13:36:25.963Z,22.13
2018-05-29T13:38:54.398Z,21.49
2018-05-29T13:41:22.727Z,20.95
2018-05-29T13:43:51.115Z,21.85
2018-05-29T13:46:20.006Z,19.40
2018-05-29T13:48:48.577Z,18.91
2018-05-29T13:51:16.787Z,20.20
2018-05-29T13:53:45.139Z,20.77
2018-05-29T13:56:14.027Z,20.74
2018-05-29T13:58:42.651Z,20.78
2018-05-29T14:01:11.131Z,20.25
2018-05-29T14:03:39.870Z,18.60
2018-05-29T14:06:08.904Z,20.64
2018-05-29T14:08:37.370Z,21.23
2018-05-29T14:11:05.849Z,20.42
2018-05-29T14:13:34.333Z,19.31
2018-05-29T14:16:02.879Z,21.62
2018-05-29T14:18:31.479Z,21.57
2018-05-29T14:21:00.142Z,22.14
2018-05-29T14:23:28.821Z,23.56
2018-05-29T14:25:57.345Z,23.34
2018-05-29T14:28:26.097Z,22.64
2018-05-29T14:30:54.559Z,23.02
2018-05-29T14:33:23.232Z,23.07
2018-05-29T14:35:51.608Z,24.21
2018-05-29T14:38:20.021Z,24.72
2018-05-29T14:40:48.397Z,25.60
2018-05-29T14:43:16.980Z,26.62
2018-05-29T14:45:45.558Z,25.29
2018-05-29T14:48:14.002Z,25.02
2018-05-29T14:50:42.535Z,25.62
2018-05-29T14:53:10.915Z,24.48
2018-05-29T14:55:39.812Z,22.82
2018-05-29T14:58:08.561Z,21.43
2018-05-29T15:00:37.019Z,22.11
2018-05-29T15:03:05.541Z,22.50
2018-05-29T15:05:34.325Z,22.77
2018-05-29T15:08:03.212Z,22.47
2018-05-29T15:10:31.689Z,23.36
2018-05-29T15:13:00.319Z,22.63
2018-05-29T15:15:28.750Z,23.62
2018-05-29T15:17:57.231Z,23.71
2018-05-29T15:20:25.521Z,25.49
2018-05-29T15:22:53.941Z,25.12
2018-05-29T15:25:22.482Z,25.30
2018-05-29T15:27:51.179Z,27.70
2018-05-29T15:30:19.734Z,27.57
2018-05-29T15:32:48.184Z,28.65
2018-05-29T15:35:16.514Z,28.24
2018-05-29T15:37:44.880Z,27.89
2018-05-29T15:40:13.418Z,28.53
2018-05-29T15:42:41.760Z,28.69
2018-05-29T15:45:10.228Z,28.14
2018-05-29T15:47:38.755Z,27.86
2018-05-29T15:50:07.475Z,28.26
2018-05-29T15:52:36.310Z,28.30
2018-05-29T15:55:04.750Z,28.62
2018-05-29T15:57:33.029Z,27.81
2018-05-29T16:00:01.565Z,27.85
2018-05-29T16:02:30.221Z,27.88
2018-05-29T16:04:58.661Z,27.84
2018-05-29T16:07:27.246Z,27.67
2018-05-29T16:09:56.010Z,27.80
2018-05-29T16:12:24.648Z,27.89
2018-05-29T16:14:53.090Z,27.62
2018-05-29T16:17:21.586Z,27.99
2018-05-29T16:19:50.081Z,27.31
2018-05-29T16:22:18.783Z,26.75
2018-05-29T16:24:47.425Z,26.84
2018-05-29T16:27:15.977Z,26.58
2018-05-29T16:29:44.435Z,26.43
2018-05-29T16:32:12.984Z,26.80
2018-05-29T16:34:41.421Z,26.86
2018-05-29T16:37:09.762Z,26.76
2018-05-29T16:39:38.294Z,28.52
2018-05-29T16:42:06.795Z,28.15
2018-05-29T16:44:35.338Z,28.18
2018-05-29T16:47:03.766Z,27.35
2018-05-29T16:49:32.235Z,27.07
2018-05-29T16:52:00.643Z,26.79
2018-05-29T16:54:29.189Z,27.22
2018-05-29T16:56:57.873Z,27.15
2018-05-29T16:59:26.220Z,26.98
2018-05-29T17:01:54.734Z,27.15
2018-05-29T17:04:24.155Z,27.24
2018-05-29T17:06:52.812Z,27.55
2018-05-29T17:09:21.297Z,27.49
2018-05-29T17:11:50.011Z,27.51
2018-05-29T17:14:18.698Z,28.03
2018-05-29T17:16:47.357Z,28.29
2018-05-29T17:19:15.947Z,28.55
2018-05-29T17:21:44.439Z,28.40
2018-05-29T17:24:13.027Z,28.86
2018-05-29T17:26:41.047Z,29.58
2018-05-29T17:29:09.649Z,29.18
2018-05-29T17:31:38.143Z,28.46
2018-05-29T17:34:06.730Z,28.07
2018-05-29T17:36:35.210Z,28.06
2018-05-29T17:39:03.748Z,29.05
2018-05-29T17:41:32.290Z,29.64
2018-05-29T17:44:01.106Z,28.77
2018-05-29T17:46:29.529Z,28.92
2018-05-29T17:48:57.956Z,29.41
2018-05-29T17:51:26.509Z,30.59
2018-05-29T17:53:55.281Z,30.34
2018-05-29T17:56:23.385Z,29.62
2018-05-29T17:58:51.389Z,29.64
2018-05-29T18:01:19.340Z,30.82
2018-05-29T18:03:47.289Z,30.39
2018-05-29T18:06:15.270Z,30.38
2018-05-29T18:08:43.296Z,30.27
2018-05-29T18:11:11.299Z,32.23
2018-05-29T18:13:39.743Z,31.68
2018-05-29T18:16:07.759Z,31.41
2018-05-29T18:18:35.752Z,32.77
2018-05-29T18:21:03.799Z,32.92
2018-05-29T18:23:31.727Z,32.57
2018-05-29T18:25:59.801Z,33.33
2018-05-29T18:28:27.734Z,32.90
2018-05-29T18:30:55.779Z,32.80
2018-05-29T18:33:23.763Z,33.16
2018-05-29T18:35:51.675Z,36.66
2018-05-29T18:38:19.730Z,39.97
2018-05-29T18:40:47.731Z,41.60
2018-05-29T18:43:15.774Z,43.51
2018-05-29T18:45:43.771Z,40.93
2018-05-29T18:48:11.757Z,40.84
2018-05-29T18:50:39.855Z,41.53
2018-05-29T18:53:07.846Z,40.25
2018-05-29T18:55:35.878Z,40.08
2018-05-29T18:58:03.942Z,39.53
2018-05-29T19:00:31.978Z,38.64
2018-05-29T19:03:00.019Z,38.08
2018-05-29T19:05:28.042Z,38.55
2018-05-29T19:07:56.189Z,37.75
2018-05-29T19:10:24.203Z,37.83
2018-05-29T19:12:52.253Z,37.94
2018-05-29T19:15:20.338Z,37.96
2018-05-29T19:17:48.422Z,37.67
2018-05-29T19:20:16.408Z,38.04
2018-05-29T19:22:44.471Z,39.65
2018-05-29T19:25:12.449Z,39.48
2018-05-29T19:27:40.424Z,38.62
2018-05-29T19:30:08.458Z,38.36
2018-05-29T19:32:36.487Z,38.03
2018-05-29T19:35:04.513Z,37.98
2018-05-29T19:37:32.599Z,38.22
2018-05-29T19:40:00.697Z,39.14
2018-05-29T19:42:28.703Z,40.36
2018-05-29T19:44:56.748Z,40.28
2018-05-29T19:47:25.027Z,39.87
2018-05-29T19:49:53.027Z,39.81
2018-05-29T19:52:21.089Z,40.38
2018-05-29T19:54:50.098Z,42.40
2018-05-29T19:57:18.158Z,43.95
2018-05-29T19:59:46.345Z,44.27
2018-05-29T20:02:14.323Z,44.80
2018-05-29T20:04:42.413Z,44.05
2018-05-29T20:07:10.422Z,43.76
2018-05-29T20:09:38.975Z,43.67
2018-05-29T20:12:07.070Z,43.21
2018-05-29T20:14:35.329Z,41.75
2018-05-29T20:17:03.410Z,40.86
2018-05-29T20:19:31.380Z,40.01
2018-05-29T20:21:59.421Z,40.22
2018-05-29T20:24:28.473Z,39.84
2018-05-29T20:26:56.517Z,39.18
2018-05-29T20:29:24.489Z,41.36
2018-05-29T20:31:52.541Z,41.06
2018-05-29T20:34:20.558Z,42.15
2018-05-29T20:36:48.605Z,41.21
2018-05-29T20:39:16.679Z,40.25
2018-05-29T20:41:44.702Z,39.69
2018-05-29T20:44:12.725Z,39.68
2018-05-29T20:46:40.843Z,42.76
2018-05-29T20:49:08.857Z,42.98
2018-05-29T20:51:36.841Z,43.47
2018-05-29T20:54:04.959Z,41.75
2018-05-29T20:56:33.186Z,41.19
2018-05-29T20:59:01.227Z,40.71
2018-05-29T21:01:29.238Z,40.69
2018-05-29T21:03:57.370Z,41.65
2018-05-29T21:06:25.345Z,40.72
2018-05-29T21:08:53.364Z,41.64
2018-05-29T21:11:21.274Z,41.73
2018-05-29T21:13:49.231Z,43.11
2018-05-29T21:16:17.273Z,43.96
2018-05-29T21:18:49.287Z,42.95
2018-05-29T21:21:18.410Z,43.65
2018-05-29T21:23:46.454Z,44.29
2018-05-29T21:26:15.182Z,43.79
2018-05-29T21:28:43.216Z,43.34
2018-05-29T21:31:11.213Z,42.76
2018-05-29T21:33:39.179Z,43.26
2018-05-29T21:36:07.278Z,42.05
2018-05-29T21:38:35.255Z,42.98
2018-05-29T21:41:04.125Z,43.07
2018-05-29T21:43:32.094Z,45.31
2018-05-29T21:46:00.105Z,46.91
2018-05-29T21:48:28.670Z,47.61
2018-05-29T21:50:56.639Z,48.59
2018-05-29T21:53:24.662Z,48.60
2018-05-29T21:55:52.774Z,47.72
2018-05-29T21:58:20.814Z,48.60
2018-05-29T22:00:48.780Z,49.18
2018-05-29T22:03:16.805Z,48.59
2018-05-29T22:05:44.840Z,46.69
2018-05-29T22:08:12.822Z,46.00
2018-05-29T22:10:40.848Z,45.57
2018-05-29T22:13:08.863Z,46.57
2018-05-29T22:15:37.159Z,46.10
2018-05-29T22:18:05.227Z,45.88
2018-05-29T22:20:33.479Z,45.62
2018-05-29T22:23:01.544Z,45.20
2018-05-29T22:25:29.567Z,44.90
2018-05-29T22:27:57.559Z,45.48
2018-05-29T22:30:25.588Z,46.29
2018-05-29T22:32:53.559Z,46.61
2018-05-29T22:35:21.554Z,47.10
2018-05-29T22:37:49.720Z,48.96
2018-05-29T22:40:17.784Z,48.22
2018-05-29T22:42:45.768Z,48.52
2018-05-29T22:45:13.760Z,49.72
2018-05-29T22:47:42.189Z,50.19
2018-05-29T22:50:10.269Z,50.46
2018-05-29T22:52:38.297Z,50.52
2018-05-29T22:55:06.310Z,51.15
2018-05-29T22:57:34.342Z,50.40
2018-05-29T23:00:02.371Z,50.67
2018-05-29T23:02:30.403Z,50.17
2018-05-29T23:04:58.391Z,49.25
2018-05-29T23:07:26.436Z,48.37
2018-05-29T23:09:55.432Z,48.41
2018-05-29T23:12:23.508Z,48.55
2018-05-29T23:14:51.505Z,48.50
2018-05-29T23:17:19.536Z,49.29
2018-05-29T23:19:47.538Z,49.19
2018-05-29T23:22:16.681Z,48.01
2018-05-29T23:24:44.717Z,48.66
2018-05-29T23:27:12.749Z,47.03
2018-05-29T23:29:40.752Z,46.77
2018-05-29T23:32:08.807Z,47.09
2018-05-29T23:34:36.841Z,47.01
2018-05-29T23:37:04.876Z,47.20
2018-05-29T23:39:32.911Z,47.01
2018-05-29T23:42:00.998Z,46.11
2018-05-29T23:44:29.085Z,45.35
2018-05-29T23:46:57.123Z,45.04
2018-05-29T23:49:25.172Z,44.85
2018-05-29T23:51:53.237Z,46.52
2018-05-29T23:54:21.254Z,45.71
2018-05-29T23:56:49.378Z,46.15
2018-05-29T23:59:18.437Z,46.56
